createdAt,value
2019-03-23T00:00:20.065Z,13.30
2019-03-23T00:01:20.026Z,13.40
2019-03-23T00:02:19.987Z,12.80
2019-03-23T00:03:19.948Z,13.40
2019-03-23T00:04:19.911Z,13.60
2019-03-23T00:05:19.867Z,14.30
2019-03-23T00:06:30.216Z,14.10
2019-03-23T00:07:19.791Z,13.40
2019-03-23T00:08:19.752Z,13.40
2019-03-23T00:09:19.717Z,14.10
2019-03-23T00:10:19.680Z,13.60
2019-03-23T00:11:19.636Z,14.10
2019-03-23T00:12:19.598Z,14.50
2019-03-23T00:13:19.565Z,14.20
2019-03-23T00:14:19.525Z,14.10
2019-03-23T00:15:19.483Z,14.30
2019-03-23T00:16:19.447Z,13.70
2019-03-23T00:17:19.401Z,13.50
2019-03-23T00:18:19.364Z,12.50
2019-03-23T00:19:19.328Z,14.40
2019-03-23T00:20:19.286Z,16.40
2019-03-23T00:21:19.253Z,16.10
2019-03-23T00:22:19.212Z,14.40
2019-03-23T00:23:19.174Z,14.70
2019-03-23T00:24:19.137Z,14.10
2019-03-23T00:25:19.091Z,14.80
2019-03-23T00:26:19.055Z,15.30
2019-03-23T00:27:19.018Z,15.10
2019-03-23T00:28:18.981Z,16.00
2019-03-23T00:29:18.942Z,15.80
2019-03-23T00:30:18.899Z,17.80
2019-03-23T00:31:18.863Z,17.40
2019-03-23T00:32:27.491Z,19.80
2019-03-23T00:34:23.228Z,20.70
2019-03-23T00:35:23.168Z,20.40
2019-03-23T00:36:23.129Z,19.90
2019-03-23T00:37:23.088Z,20.70
2019-03-23T00:38:23.050Z,20.30
2019-03-23T00:39:23.009Z,20.60
2019-03-23T00:40:22.976Z,20.90
2019-03-23T00:41:22.933Z,21.20
2019-03-23T00:42:22.891Z,21.80
2019-03-23T00:43:22.851Z,22.40
2019-03-23T00:44:22.814Z,22.00
2019-03-23T00:45:22.775Z,21.80
2019-03-23T00:46:22.741Z,21.10
2019-03-23T00:47:22.702Z,21.00
2019-03-23T00:48:22.661Z,21.30
2019-03-23T00:49:22.634Z,21.50
2019-03-23T00:50:22.579Z,22.50
2019-03-23T00:51:22.541Z,22.40
2019-03-23T00:52:22.503Z,23.00
2019-03-23T00:53:22.466Z,20.90
2019-03-23T00:54:22.428Z,20.90
2019-03-23T00:55:22.390Z,21.60
2019-03-23T00:56:22.349Z,22.20
2019-03-23T00:57:22.307Z,20.40
2019-03-23T00:58:22.270Z,20.90
2019-03-23T00:59:22.234Z,21.20
2019-03-23T01:00:22.195Z,21.90
2019-03-23T01:01:22.154Z,21.80
2019-03-23T01:02:22.114Z,20.50
2019-03-23T01:03:22.073Z,21.00
2019-03-23T01:04:22.034Z,20.40
2019-03-23T01:05:21.997Z,19.70
2019-03-23T01:06:21.961Z,19.60
2019-03-23T01:07:21.923Z,18.40
2019-03-23T01:08:21.884Z,18.20
2019-03-23T01:09:21.847Z,18.30
2019-03-23T01:10:21.803Z,20.50
2019-03-23T01:11:21.762Z,18.80
2019-03-23T01:12:21.730Z,18.70
2019-03-23T01:13:21.692Z,19.10
2019-03-23T01:14:21.646Z,19.50
2019-03-23T01:15:21.612Z,20.00
2019-03-23T01:16:21.566Z,20.90
2019-03-23T01:17:21.531Z,20.50
2019-03-23T01:18:21.493Z,21.80
2019-03-23T01:19:21.456Z,22.10
2019-03-23T01:20:21.417Z,21.40
2019-03-23T01:21:21.377Z,21.80
2019-03-23T01:22:21.349Z,21.90
2019-03-23T01:23:21.295Z,21.50
2019-03-23T01:24:21.255Z,21.60
2019-03-23T01:25:21.219Z,20.80
2019-03-23T01:26:21.182Z,19.90
2019-03-23T01:27:21.143Z,20.30
2019-03-23T01:28:21.098Z,21.70
2019-03-23T01:29:21.062Z,20.90
2019-03-23T01:30:21.024Z,21.60
2019-03-23T01:31:20.989Z,20.60
2019-03-23T01:32:20.949Z,21.20
2019-03-23T01:33:20.908Z,20.20
2019-03-23T01:34:20.866Z,21.10
2019-03-23T01:35:20.824Z,21.50
2019-03-23T01:36:20.786Z,20.80
2019-03-23T01:37:20.748Z,21.80
2019-03-23T01:38:20.711Z,22.40
2019-03-23T01:39:20.674Z,21.80
2019-03-23T01:40:20.635Z,21.80
2019-03-23T01:41:20.594Z,21.60
2019-03-23T01:42:20.553Z,21.40
2019-03-23T01:43:20.512Z,21.50
2019-03-23T01:44:20.479Z,23.10
2019-03-23T01:45:20.437Z,22.70
2019-03-23T01:46:20.395Z,21.70
2019-03-23T01:47:20.356Z,23.20
2019-03-23T01:48:20.317Z,25.10
2019-03-23T01:49:20.289Z,24.10
2019-03-23T01:50:20.243Z,23.80
2019-03-23T01:51:20.210Z,23.90
2019-03-23T01:52:20.166Z,24.70
2019-03-23T01:53:20.123Z,24.10
2019-03-23T01:54:20.082Z,24.30
2019-03-23T01:55:20.042Z,24.30
2019-03-23T01:56:20.002Z,25.00
2019-03-23T01:57:19.966Z,25.30
2019-03-23T01:58:19.927Z,23.50
2019-03-23T01:59:19.891Z,21.80
2019-03-23T02:00:19.846Z,21.00
2019-03-23T02:01:19.810Z,22.00
2019-03-23T02:02:19.775Z,20.60
2019-03-23T02:03:19.733Z,19.60
2019-03-23T02:04:19.694Z,19.20
2019-03-23T02:05:19.656Z,20.60
2019-03-23T02:06:19.612Z,20.30
2019-03-23T02:07:19.572Z,21.50
2019-03-23T02:08:19.533Z,20.80
2019-03-23T02:09:19.494Z,21.50
2019-03-23T02:10:19.459Z,21.30
2019-03-23T02:11:19.417Z,21.00
2019-03-23T02:12:19.382Z,19.80
2019-03-23T02:13:19.342Z,21.00
2019-03-23T02:14:19.296Z,21.10
2019-03-23T02:15:19.258Z,21.10
2019-03-23T02:16:19.222Z,21.20
2019-03-23T02:17:19.184Z,22.00
2019-03-23T02:18:19.141Z,22.70
2019-03-23T02:19:19.101Z,22.50
2019-03-23T02:20:19.060Z,21.90
2019-03-23T02:21:19.020Z,22.10
2019-03-23T02:22:18.987Z,21.40
2019-03-23T02:23:18.946Z,21.90
2019-03-23T02:24:18.909Z,22.10
2019-03-23T02:25:18.870Z,20.20
2019-03-23T02:26:18.823Z,20.50
2019-03-23T02:27:18.787Z,21.00
2019-03-23T02:28:18.747Z,22.10
2019-03-23T02:29:18.708Z,22.70
2019-03-23T02:30:18.675Z,23.20
2019-03-23T02:31:18.631Z,23.20
2019-03-23T02:32:18.589Z,21.80
2019-03-23T02:33:18.549Z,20.70
2019-03-23T02:34:18.515Z,22.90
2019-03-23T02:35:18.475Z,21.60
2019-03-23T02:36:18.433Z,22.50
2019-03-23T02:37:27.699Z,22.00
2019-03-23T02:38:18.351Z,22.60
2019-03-23T02:39:18.317Z,23.30
2019-03-23T02:40:18.297Z,21.10
2019-03-23T02:41:18.234Z,22.00
2019-03-23T02:42:18.205Z,21.40
2019-03-23T02:43:18.161Z,22.70
2019-03-23T02:44:18.118Z,22.30
2019-03-23T02:45:18.081Z,22.40
2019-03-23T02:46:18.037Z,21.20
2019-03-23T02:47:17.999Z,21.00
2019-03-23T02:48:17.966Z,22.60
2019-03-23T02:49:17.926Z,20.10
2019-03-23T02:50:17.902Z,18.60
2019-03-23T02:51:17.840Z,18.90
2019-03-23T02:52:17.799Z,19.30
2019-03-23T02:53:17.760Z,19.20
2019-03-23T02:54:17.728Z,19.70
2019-03-23T02:55:17.684Z,19.30
2019-03-23T02:56:17.646Z,19.10
2019-03-23T02:57:17.608Z,19.20
2019-03-23T02:58:17.563Z,19.50
2019-03-23T02:59:17.525Z,20.60
2019-03-23T03:00:17.489Z,20.40
2019-03-23T03:01:17.445Z,19.40
2019-03-23T03:02:17.409Z,19.70
2019-03-23T03:03:17.366Z,20.40
2019-03-23T03:04:17.325Z,20.70
2019-03-23T03:05:17.283Z,19.80
2019-03-23T03:06:17.252Z,20.40
2019-03-23T03:07:17.210Z,20.40
2019-03-23T03:08:17.174Z,19.30
2019-03-23T03:09:17.130Z,19.30
2019-03-23T03:10:17.087Z,19.80
2019-03-23T03:11:17.048Z,20.20
2019-03-23T03:12:17.007Z,19.90
2019-03-23T03:13:16.967Z,19.00
2019-03-23T03:14:16.939Z,19.70
2019-03-23T03:15:16.897Z,20.20
2019-03-23T03:16:16.850Z,19.00
2019-03-23T03:17:16.811Z,18.90
2019-03-23T03:18:16.767Z,20.40
2019-03-23T03:19:16.729Z,19.70
2019-03-23T03:20:16.691Z,21.10
2019-03-23T03:21:16.652Z,20.80
2019-03-23T03:22:16.614Z,20.70
2019-03-23T03:23:16.572Z,19.80
2019-03-23T03:24:16.537Z,20.90
2019-03-23T03:25:16.487Z,21.40
2019-03-23T03:26:16.453Z,23.70
2019-03-23T03:27:16.420Z,24.50
2019-03-23T03:28:16.400Z,24.20
2019-03-23T03:29:16.332Z,24.70
2019-03-23T03:30:16.290Z,24.60
2019-03-23T03:44:11.844Z,32.20
2019-03-23T03:45:11.772Z,38.70
2019-03-23T03:46:11.729Z,44.40
2019-03-23T03:47:11.690Z,50.20
2019-03-23T03:48:11.639Z,55.30
2019-03-23T03:49:12.602Z,55.00
2019-03-23T03:50:11.557Z,53.90
2019-03-23T03:51:11.512Z,57.50
2019-03-23T03:52:11.468Z,57.50
2019-03-23T03:53:11.430Z,60.60
2019-03-23T03:54:11.386Z,61.90
2019-03-23T03:55:11.341Z,61.50
2019-03-23T03:56:11.298Z,59.70
2019-03-23T03:57:11.260Z,60.10
2019-03-23T03:58:11.220Z,60.70
2019-03-23T03:59:11.180Z,61.10
2019-03-23T04:00:11.146Z,64.00
2019-03-23T04:01:11.094Z,64.20
2019-03-23T04:02:11.049Z,62.30
2019-03-23T04:03:11.010Z,61.90
2019-03-23T04:04:10.970Z,62.60
2019-03-23T04:05:10.933Z,62.10
2019-03-23T04:06:10.890Z,58.00
2019-03-23T04:07:10.850Z,59.50
2019-03-23T04:08:12.072Z,57.60
2019-03-23T04:09:10.762Z,59.50
2019-03-23T04:10:10.745Z,59.20
2019-03-23T04:11:10.698Z,59.00
2019-03-23T04:12:10.645Z,57.60
2019-03-23T04:13:10.599Z,56.60
2019-03-23T04:14:10.557Z,56.10
2019-03-23T04:15:10.524Z,56.00
2019-03-23T04:16:10.543Z,54.50
2019-03-23T04:17:10.438Z,55.60
2019-03-23T04:18:10.399Z,55.50
2019-03-23T04:19:10.358Z,55.50
2019-03-23T04:20:10.316Z,55.40
2019-03-23T04:21:10.274Z,55.20
2019-03-23T04:22:10.247Z,57.40
2019-03-23T04:23:10.199Z,55.80
2019-03-23T04:24:10.150Z,57.20
2019-03-23T04:25:10.115Z,57.30
2019-03-23T04:26:10.074Z,58.60
2019-03-23T04:27:10.025Z,60.70
2019-03-23T04:28:09.986Z,60.00
2019-03-23T04:29:09.955Z,61.50
2019-03-23T04:30:09.911Z,59.90
2019-03-23T04:31:09.872Z,60.00
2019-03-23T04:32:09.836Z,64.00
2019-03-23T04:33:09.782Z,65.50
2019-03-23T04:34:09.739Z,65.50
2019-03-23T04:35:09.702Z,65.40
2019-03-23T04:36:09.658Z,63.20
2019-03-23T04:37:09.620Z,67.10
2019-03-23T04:38:09.583Z,65.20
2019-03-23T04:39:09.539Z,66.00
2019-03-23T04:40:09.498Z,72.50
2019-03-23T04:41:09.457Z,72.30
2019-03-23T04:42:09.410Z,77.40
2019-03-23T04:43:09.375Z,78.20
2019-03-23T04:44:09.331Z,78.50
2019-03-23T04:45:09.288Z,78.20
2019-03-23T04:46:09.248Z,78.10
2019-03-23T04:47:09.204Z,76.50
2019-03-23T04:48:09.166Z,76.20
2019-03-23T04:49:09.126Z,76.10
2019-03-23T04:50:09.092Z,78.10
2019-03-23T04:51:09.046Z,74.60
2019-03-23T04:52:09.002Z,78.10
2019-03-23T04:53:08.960Z,77.40
2019-03-23T04:54:08.919Z,78.10
2019-03-23T04:55:08.879Z,76.20
2019-03-23T04:56:08.839Z,75.00
2019-03-23T04:57:08.799Z,73.70
2019-03-23T04:58:08.759Z,69.70
2019-03-23T04:59:08.713Z,73.00
2019-03-23T05:00:08.672Z,72.20
2019-03-23T05:01:08.636Z,69.10
2019-03-23T05:02:08.595Z,67.80
2019-03-23T05:03:08.553Z,67.80
2019-03-23T05:04:08.511Z,66.70
2019-03-23T05:05:08.471Z,67.90
2019-03-23T05:06:08.424Z,69.40
2019-03-23T05:07:08.384Z,68.00
2019-03-23T05:08:08.343Z,67.80
2019-03-23T05:09:08.305Z,69.30
2019-03-23T05:10:08.272Z,69.00
2019-03-23T05:11:08.227Z,66.90
2019-03-23T05:12:08.181Z,65.50
2019-03-23T05:13:08.138Z,68.50
2019-03-23T05:14:08.100Z,67.00
2019-03-23T05:15:08.075Z,66.60
2019-03-23T05:16:08.019Z,66.30
2019-03-23T05:17:08.019Z,64.90
2019-03-23T05:18:07.932Z,62.60
2019-03-23T05:19:07.890Z,61.40
2019-03-23T05:20:07.854Z,63.40
2019-03-23T05:21:07.811Z,62.50
2019-03-23T05:22:07.773Z,63.50
2019-03-23T05:23:07.732Z,61.90
2019-03-23T05:24:07.693Z,62.70
2019-03-23T05:25:07.646Z,63.40
2019-03-23T05:26:07.604Z,60.90
2019-03-23T05:27:07.565Z,62.90
2019-03-23T05:28:07.522Z,61.20
2019-03-23T05:29:07.482Z,59.00
2019-03-23T05:30:07.444Z,59.80
2019-03-23T05:31:07.398Z,60.40
2019-03-23T05:32:07.360Z,59.00
2019-03-23T05:33:07.325Z,61.20
2019-03-23T05:34:07.281Z,63.60
2019-03-23T05:35:07.241Z,62.70
2019-03-23T05:36:07.196Z,63.00
2019-03-23T05:37:07.154Z,61.40
2019-03-23T05:38:07.111Z,60.00
2019-03-23T05:39:07.081Z,61.90
2019-03-23T05:40:07.039Z,60.90
2019-03-23T05:41:06.989Z,59.00
2019-03-23T05:42:06.952Z,63.00
2019-03-23T05:43:06.913Z,59.80
2019-03-23T05:44:06.865Z,59.40
2019-03-23T05:45:06.833Z,60.70
2019-03-23T05:46:06.787Z,59.30
2019-03-23T05:47:06.746Z,57.20
2019-03-23T05:48:06.702Z,59.90
2019-03-23T05:49:06.665Z,57.10
2019-03-23T05:50:06.625Z,58.70
2019-03-23T05:51:06.581Z,57.10
2019-03-23T05:52:06.542Z,58.50
2019-03-23T05:53:06.498Z,59.30
2019-03-23T05:54:06.456Z,54.10
2019-03-23T05:55:06.419Z,55.60
2019-03-23T05:56:06.371Z,56.20
2019-03-23T05:57:06.342Z,54.40
2019-03-23T05:58:06.295Z,54.30
2019-03-23T05:59:06.253Z,55.10
2019-03-23T06:00:06.217Z,54.10
2019-03-23T06:01:06.168Z,54.90
2019-03-23T06:02:06.135Z,55.30
2019-03-23T06:03:06.089Z,54.50
2019-03-23T06:04:06.049Z,55.30
2019-03-23T06:05:06.003Z,57.00
2019-03-23T06:06:05.964Z,56.30
2019-03-23T06:07:05.924Z,54.70
2019-03-23T06:08:05.882Z,55.50
2019-03-23T06:09:05.843Z,57.30
2019-03-23T06:10:05.804Z,56.40
2019-03-23T06:11:05.761Z,55.80
2019-03-23T06:12:05.721Z,55.40
2019-03-23T06:13:05.678Z,56.00
2019-03-23T06:14:05.637Z,57.50
2019-03-23T06:15:05.647Z,57.20
2019-03-23T06:16:05.555Z,58.70
2019-03-23T06:17:05.530Z,56.30
2019-03-23T06:18:05.474Z,57.20
2019-03-23T06:19:05.433Z,56.90
2019-03-23T06:20:05.386Z,58.90
2019-03-23T06:21:05.355Z,56.60
2019-03-23T06:22:05.317Z,55.10
2019-03-23T06:23:05.270Z,54.40
2019-03-23T06:24:05.228Z,55.00
2019-03-23T06:25:05.184Z,54.70
2019-03-23T06:26:06.424Z,53.80
2019-03-23T06:27:05.103Z,52.20
2019-03-23T06:28:05.059Z,51.30
2019-03-23T06:29:05.028Z,50.80
2019-03-23T06:30:04.981Z,49.00
2019-03-23T06:31:04.942Z,50.00
2019-03-23T06:32:13.566Z,47.30
2019-03-23T06:34:09.310Z,47.50
2019-03-23T06:35:09.241Z,47.90
2019-03-23T06:36:09.201Z,46.70
2019-03-23T06:37:09.155Z,46.40
2019-03-23T06:38:09.121Z,45.90
2019-03-23T06:39:09.074Z,45.40
2019-03-23T06:40:09.033Z,45.10
2019-03-23T06:41:09.003Z,44.40
2019-03-23T06:42:08.955Z,45.20
2019-03-23T06:43:08.912Z,43.70
2019-03-23T06:44:08.873Z,45.30
2019-03-23T06:45:08.829Z,44.50
2019-03-23T06:46:08.788Z,44.60
2019-03-23T06:47:08.749Z,45.60
2019-03-23T06:48:08.712Z,44.20
2019-03-23T06:49:08.663Z,45.10
2019-03-23T06:50:08.626Z,44.00
2019-03-23T06:51:08.585Z,44.90
2019-03-23T06:52:08.541Z,44.80
2019-03-23T06:53:08.508Z,44.80
2019-03-23T06:54:08.463Z,43.20
2019-03-23T06:55:08.422Z,42.10
2019-03-23T06:56:08.392Z,42.20
2019-03-23T06:57:08.339Z,42.20
2019-03-23T06:58:08.299Z,42.60
2019-03-23T06:59:08.257Z,43.50
2019-03-23T07:00:08.218Z,42.30
2019-03-23T07:01:08.181Z,41.40
2019-03-23T07:02:08.137Z,42.80
2019-03-23T07:03:08.093Z,42.90
2019-03-23T07:04:08.051Z,44.90
2019-03-23T07:05:08.018Z,43.80
2019-03-23T07:06:07.975Z,43.00
2019-03-23T07:07:07.934Z,43.70
2019-03-23T07:08:07.893Z,40.90
2019-03-23T07:09:15.825Z,42.80
2019-03-23T07:10:07.811Z,42.70
2019-03-23T07:11:07.764Z,42.90
2019-03-23T07:12:07.727Z,43.20
2019-03-23T07:13:07.687Z,43.20
2019-03-23T07:14:07.649Z,44.10
2019-03-23T07:15:07.606Z,43.30
2019-03-23T07:16:07.564Z,42.00
2019-03-23T07:17:07.521Z,43.10
2019-03-23T07:18:07.479Z,44.60
2019-03-23T07:19:07.446Z,44.40
2019-03-23T07:20:07.402Z,44.80
2019-03-23T07:21:07.355Z,43.90
2019-03-23T07:22:07.318Z,45.40
2019-03-23T07:23:07.277Z,44.80
2019-03-23T07:24:07.233Z,43.60
2019-03-23T07:25:07.199Z,43.00
2019-03-23T07:26:07.157Z,43.40
2019-03-23T07:27:07.117Z,45.00
2019-03-23T07:28:07.978Z,44.50
2019-03-23T07:29:07.033Z,45.00
2019-03-23T07:30:06.989Z,44.20
2019-03-23T07:31:06.946Z,44.30
2019-03-23T07:32:06.932Z,43.90
2019-03-23T07:33:06.871Z,43.50
2019-03-23T07:34:06.830Z,44.00
2019-03-23T07:35:07.089Z,46.20
2019-03-23T07:36:06.746Z,43.70
2019-03-23T07:37:06.706Z,44.40
2019-03-23T07:38:06.668Z,44.60
2019-03-23T07:39:06.626Z,44.60
2019-03-23T07:40:06.584Z,43.70
2019-03-23T07:41:06.540Z,43.30
2019-03-23T07:42:06.496Z,44.00
2019-03-23T07:43:06.455Z,43.20
2019-03-23T07:44:06.418Z,43.00
2019-03-23T07:45:06.379Z,43.00
2019-03-23T07:46:06.339Z,43.40
2019-03-23T07:47:06.298Z,44.50
2019-03-23T07:48:06.257Z,41.90
2019-03-23T07:49:06.214Z,43.10
2019-03-23T07:50:06.171Z,43.50
2019-03-23T07:51:06.135Z,41.40
2019-03-23T07:52:06.093Z,40.80
2019-03-23T07:53:06.052Z,41.90
2019-03-23T07:54:06.010Z,41.30
2019-03-23T07:55:05.966Z,40.60
2019-03-23T07:56:05.928Z,41.00
2019-03-23T07:57:05.889Z,42.40
2019-03-23T07:58:05.851Z,42.10
2019-03-23T07:59:05.811Z,41.40
2019-03-23T08:00:05.768Z,40.20
2019-03-23T08:01:05.724Z,39.90
2019-03-23T08:02:05.684Z,41.20
2019-03-23T08:03:05.640Z,40.60
2019-03-23T08:04:05.602Z,40.00
2019-03-23T08:05:05.562Z,40.60
2019-03-23T08:06:05.525Z,40.10
2019-03-23T08:07:05.480Z,38.50
2019-03-23T08:08:05.439Z,37.70
2019-03-23T08:09:05.401Z,37.80
2019-03-23T08:10:05.365Z,38.10
2019-03-23T08:11:05.323Z,39.80
2019-03-23T08:12:05.280Z,38.40
2019-03-23T08:13:05.235Z,38.00
2019-03-23T08:14:05.196Z,38.80
2019-03-23T08:15:05.152Z,38.80
2019-03-23T08:16:05.114Z,38.10
2019-03-23T08:17:05.074Z,38.30
2019-03-23T08:18:05.045Z,37.90
2019-03-23T08:19:04.995Z,38.30
2019-03-23T08:20:04.952Z,39.40
2019-03-23T08:21:04.910Z,39.40
2019-03-23T08:22:04.873Z,38.40
2019-03-23T08:23:04.830Z,39.10
2019-03-23T08:24:04.791Z,39.60
2019-03-23T08:25:04.745Z,40.20
2019-03-23T08:26:04.704Z,39.40
2019-03-23T08:27:04.662Z,39.40
2019-03-23T08:28:04.622Z,39.10
2019-03-23T08:29:04.584Z,39.90
2019-03-23T08:30:04.548Z,39.40
2019-03-23T08:31:04.505Z,39.20
2019-03-23T08:32:04.461Z,37.60
2019-03-23T08:33:04.420Z,37.20
2019-03-23T08:34:04.377Z,36.30
2019-03-23T08:35:04.340Z,36.40
2019-03-23T08:36:04.296Z,34.10
2019-03-23T08:37:04.259Z,35.30
2019-03-23T08:38:04.219Z,37.00
2019-03-23T08:39:04.172Z,37.40
2019-03-23T08:40:04.133Z,37.50
2019-03-23T08:41:04.094Z,35.80
2019-03-23T08:42:04.056Z,36.00
2019-03-23T08:43:04.014Z,36.40
2019-03-23T08:44:03.971Z,37.60
2019-03-23T08:45:03.933Z,37.60
2019-03-23T08:46:03.888Z,37.90
2019-03-23T08:47:03.845Z,38.30
2019-03-23T08:48:03.807Z,38.50
2019-03-23T08:49:03.770Z,37.30
2019-03-23T08:50:03.729Z,35.60
2019-03-23T08:51:03.686Z,38.40
2019-03-23T08:52:03.645Z,37.70
2019-03-23T08:53:03.602Z,38.90
2019-03-23T08:54:03.560Z,37.30
2019-03-23T08:55:03.525Z,37.00
2019-03-23T08:56:03.484Z,35.90
2019-03-23T08:57:03.446Z,37.20
2019-03-23T08:58:03.396Z,35.70
2019-03-23T08:59:03.358Z,36.50
2019-03-23T09:00:03.316Z,33.80
2019-03-23T09:01:03.277Z,35.30
2019-03-23T09:02:03.236Z,34.90
2019-03-23T09:03:03.827Z,34.10
2019-03-23T09:04:03.158Z,35.00
2019-03-23T09:05:03.119Z,34.80
2019-03-23T09:06:03.071Z,32.60
2019-03-23T09:07:03.032Z,33.60
2019-03-23T09:08:02.995Z,33.80
2019-03-23T09:09:02.951Z,33.40
2019-03-23T09:10:02.912Z,32.40
2019-03-23T09:11:02.872Z,32.20
2019-03-23T09:12:02.829Z,31.40
2019-03-23T09:13:02.791Z,31.70
2019-03-23T09:14:02.750Z,32.20
2019-03-23T09:15:02.709Z,30.80
2019-03-23T09:16:02.674Z,30.50
2019-03-23T09:17:02.625Z,30.00
2019-03-23T09:18:02.582Z,29.50
2019-03-23T09:19:02.541Z,28.60
2019-03-23T09:20:02.502Z,29.90
2019-03-23T09:21:02.464Z,29.40
2019-03-23T09:22:02.427Z,29.90
2019-03-23T09:23:02.387Z,32.00
2019-03-23T09:24:02.341Z,35.60
2019-03-23T09:25:02.300Z,30.10
2019-03-23T09:26:02.266Z,29.00
2019-03-23T09:27:02.220Z,28.80
2019-03-23T09:28:02.181Z,30.20
2019-03-23T09:29:02.140Z,28.80
2019-03-23T09:30:02.095Z,29.60
2019-03-23T09:31:02.052Z,30.20
2019-03-23T09:32:02.015Z,28.50
2019-03-23T09:33:01.979Z,30.30
2019-03-23T09:34:01.937Z,29.30
2019-03-23T09:35:01.895Z,29.90
2019-03-23T09:36:01.857Z,29.90
2019-03-23T09:37:01.811Z,29.90
2019-03-23T09:38:01.770Z,30.30
2019-03-23T09:39:01.730Z,31.10
2019-03-23T09:40:10.033Z,31.80
2019-03-23T09:41:01.652Z,31.00
2019-03-23T09:42:01.613Z,30.50
2019-03-23T09:43:01.567Z,30.40
2019-03-23T09:44:01.529Z,29.50
2019-03-23T09:57:43.620Z,29.40
2019-03-23T09:58:43.545Z,31.10
2019-03-23T09:59:43.499Z,34.70
2019-03-23T10:00:43.454Z,34.90
2019-03-23T10:01:43.409Z,38.10
2019-03-23T10:02:43.367Z,38.20
2019-03-23T10:03:43.327Z,40.30
2019-03-23T10:04:43.282Z,39.20
2019-03-23T10:05:43.242Z,39.50
2019-03-23T10:06:43.199Z,39.20
2019-03-23T10:07:43.160Z,39.00
2019-03-23T10:08:43.119Z,39.40
2019-03-23T10:09:43.071Z,40.60
2019-03-23T10:10:43.032Z,43.80
2019-03-23T10:11:42.988Z,42.10
2019-03-23T10:12:42.950Z,43.10
2019-03-23T10:13:42.911Z,42.70
2019-03-23T10:14:42.864Z,44.90
2019-03-23T10:15:42.824Z,45.60
2019-03-23T10:16:42.801Z,46.10
2019-03-23T10:17:42.746Z,47.60
2019-03-23T10:18:42.705Z,47.90
2019-03-23T10:19:42.663Z,47.20
2019-03-23T10:20:42.620Z,45.90
2019-03-23T10:21:42.580Z,46.50
2019-03-23T10:22:42.537Z,45.00
2019-03-23T10:23:42.498Z,44.80
2019-03-23T10:24:42.469Z,43.60
2019-03-23T10:25:42.421Z,44.50
2019-03-23T10:26:42.381Z,43.20
2019-03-23T10:27:42.337Z,40.80
2019-03-23T10:28:42.296Z,42.20
2019-03-23T10:29:42.251Z,40.90
2019-03-23T10:30:42.221Z,38.70
2019-03-23T10:31:42.176Z,39.20
2019-03-23T10:32:42.133Z,40.10
2019-03-23T10:33:42.089Z,39.20
2019-03-23T10:34:42.050Z,39.00
2019-03-23T10:35:42.011Z,39.60
2019-03-23T10:36:41.974Z,39.10
2019-03-23T10:37:41.998Z,37.80
2019-03-23T10:38:41.892Z,39.80
2019-03-23T10:39:41.852Z,38.90
2019-03-23T10:40:42.991Z,39.40
2019-03-23T10:41:41.766Z,38.90
2019-03-23T10:42:43.348Z,37.20
2019-03-23T10:43:41.687Z,36.50
2019-03-23T10:44:41.648Z,37.70
2019-03-23T10:45:44.339Z,38.70
2019-03-23T10:46:41.566Z,37.90
2019-03-23T10:47:41.664Z,38.50
2019-03-23T10:48:41.536Z,40.30
2019-03-23T10:49:41.451Z,40.30
2019-03-23T10:50:41.408Z,40.50
2019-03-23T10:51:41.366Z,42.30
2019-03-23T10:52:41.324Z,40.50
2019-03-23T10:53:41.290Z,40.30
2019-03-23T10:54:41.241Z,43.30
2019-03-23T10:55:41.203Z,47.70
2019-03-23T10:56:41.164Z,50.90
2019-03-23T10:57:41.127Z,52.20
2019-03-23T10:58:41.086Z,53.90
2019-03-23T10:59:41.044Z,54.10
2019-03-23T11:00:41.004Z,56.10
2019-03-23T11:01:40.961Z,55.20
2019-03-23T11:02:40.925Z,55.60
2019-03-23T11:03:40.882Z,57.40
2019-03-23T11:04:40.841Z,56.10
2019-03-23T11:05:40.799Z,53.90
2019-03-23T11:06:40.766Z,55.10
2019-03-23T11:07:40.720Z,48.60
2019-03-23T11:08:40.682Z,47.70
2019-03-23T11:09:40.644Z,47.30
2019-03-23T11:10:41.978Z,45.90
2019-03-23T11:11:40.564Z,45.90
2019-03-23T11:12:40.520Z,47.30
2019-03-23T11:13:40.477Z,44.80
2019-03-23T11:14:40.436Z,44.70
2019-03-23T11:15:40.400Z,42.20
2019-03-23T11:16:40.364Z,44.30
2019-03-23T11:17:40.322Z,44.30
2019-03-23T11:18:40.279Z,43.80
2019-03-23T11:19:40.239Z,43.60
2019-03-23T11:20:40.202Z,44.20
2019-03-23T11:21:40.163Z,45.60
2019-03-23T11:22:40.123Z,45.90
2019-03-23T11:23:40.080Z,45.00
2019-03-23T11:24:40.039Z,45.70
2019-03-23T11:25:39.995Z,44.80
2019-03-23T11:26:39.956Z,45.10
2019-03-23T11:27:39.918Z,45.30
2019-03-23T11:28:39.880Z,44.10
2019-03-23T11:29:39.844Z,45.20
2019-03-23T11:30:39.807Z,44.10
2019-03-23T11:31:39.759Z,45.60
2019-03-23T11:32:39.718Z,44.00
2019-03-23T11:33:39.676Z,42.30
2019-03-23T11:34:39.641Z,45.40
2019-03-23T11:35:39.602Z,47.60
2019-03-23T11:36:39.558Z,45.10
2019-03-23T11:37:39.691Z,47.30
2019-03-23T11:38:39.475Z,48.90
2019-03-23T11:39:39.438Z,48.10
2019-03-23T11:40:39.399Z,48.60
2019-03-23T11:41:39.367Z,48.20
2019-03-23T11:42:49.307Z,50.00
2019-03-23T11:43:39.286Z,49.40
2019-03-23T11:44:39.264Z,49.10
2019-03-23T11:45:39.227Z,48.90
2019-03-23T11:46:39.156Z,49.80
2019-03-23T11:47:39.118Z,48.80
2019-03-23T11:48:39.079Z,50.10
2019-03-23T11:49:39.046Z,48.70
2019-03-23T11:50:38.996Z,48.70
2019-03-23T11:51:38.961Z,48.30
2019-03-23T11:52:38.919Z,47.60
2019-03-23T11:53:38.882Z,47.00
2019-03-23T11:54:38.841Z,47.60
2019-03-23T11:55:38.828Z,46.90
2019-03-23T11:56:38.758Z,44.50
2019-03-23T11:57:38.718Z,48.30
2019-03-23T11:58:38.678Z,46.00
2019-03-23T11:59:38.638Z,45.60
2019-03-23T12:00:38.601Z,46.90
2019-03-23T12:01:38.563Z,47.30
2019-03-23T12:02:38.525Z,48.60
2019-03-23T12:03:38.481Z,46.90
2019-03-23T12:04:38.440Z,46.50
2019-03-23T12:05:38.401Z,48.00
2019-03-23T12:06:38.363Z,47.80
2019-03-23T12:07:38.322Z,47.90
2019-03-23T12:08:38.283Z,48.40
2019-03-23T12:09:38.244Z,47.50
2019-03-23T12:10:38.200Z,48.40
2019-03-23T12:11:38.164Z,49.90
2019-03-23T12:12:38.123Z,50.40
2019-03-23T12:13:38.087Z,51.00
2019-03-23T12:14:38.046Z,51.00
2019-03-23T12:15:38.008Z,51.10
2019-03-23T12:16:37.967Z,50.60
2019-03-23T12:17:37.922Z,50.30
2019-03-23T12:18:37.883Z,47.70
2019-03-23T12:19:37.846Z,47.10
2019-03-23T12:20:37.810Z,43.50
2019-03-23T12:21:37.772Z,51.10
2019-03-23T12:22:37.725Z,51.00
2019-03-23T12:23:37.688Z,52.10
2019-03-23T12:24:37.651Z,51.40
2019-03-23T12:25:37.617Z,50.80
2019-03-23T12:26:37.573Z,50.30
2019-03-23T12:27:37.535Z,51.40
2019-03-23T12:28:37.493Z,52.20
2019-03-23T12:29:37.451Z,51.20
2019-03-23T12:30:37.413Z,51.60
2019-03-23T12:31:37.378Z,51.70
2019-03-23T12:32:37.339Z,52.30
2019-03-23T12:33:37.301Z,52.80
2019-03-23T12:34:37.258Z,52.90
2019-03-23T12:35:37.222Z,54.30
2019-03-23T12:36:37.176Z,50.80
2019-03-23T12:37:37.140Z,50.90
2019-03-23T12:38:37.101Z,51.90
2019-03-23T12:39:37.063Z,53.50
2019-03-23T12:40:37.032Z,52.90
2019-03-23T12:41:36.984Z,53.80
2019-03-23T12:42:36.941Z,53.60
2019-03-23T12:43:37.111Z,53.60
2019-03-23T12:44:36.868Z,52.90
2019-03-23T12:45:38.814Z,52.60
2019-03-23T12:46:36.818Z,52.60
2019-03-23T12:47:36.751Z,52.90
2019-03-23T12:48:36.705Z,53.50
2019-03-23T12:49:36.683Z,53.80
2019-03-23T12:50:36.657Z,56.60
2019-03-23T12:51:36.610Z,57.50
2019-03-23T12:52:36.571Z,54.00
2019-03-23T12:53:36.529Z,54.20
2019-03-23T12:54:36.474Z,53.80
2019-03-23T12:55:36.439Z,55.00
2019-03-23T12:56:36.401Z,54.40
2019-03-23T12:57:36.362Z,54.10
2019-03-23T12:58:36.363Z,55.90
2019-03-23T12:59:36.488Z,55.00
2019-03-23T13:00:36.252Z,55.70
2019-03-23T13:01:36.207Z,55.30
2019-03-23T13:02:36.202Z,56.10
2019-03-23T13:03:36.273Z,55.30
2019-03-23T13:04:36.108Z,55.70
2019-03-23T13:05:36.048Z,54.80
2019-03-23T13:06:36.009Z,53.80
2019-03-23T13:07:35.972Z,55.30
2019-03-23T13:08:35.930Z,54.20
2019-03-23T13:09:35.906Z,56.20
2019-03-23T13:10:35.854Z,54.10
2019-03-23T13:11:36.221Z,57.10
2019-03-23T13:12:35.767Z,58.50
2019-03-23T13:13:36.296Z,59.00
2019-03-23T13:14:35.702Z,56.40
2019-03-23T13:15:35.670Z,57.00
2019-03-23T13:16:35.621Z,58.10
2019-03-23T13:17:35.665Z,59.30
2019-03-23T13:18:35.830Z,56.70
2019-03-23T13:19:35.525Z,58.70